createdAt,value
2022-08-30T00:02:15.725Z,100419.91
2022-08-30T00:08:18.181Z,100415.72
2022-08-30T00:14:20.582Z,100417.34
2022-08-30T00:20:26.237Z,100420.44
2022-08-30T00:26:29.786Z,100414.31
2022-08-30T00:32:32.105Z,100406.97
2022-08-30T00:38:34.367Z,100408.13
2022-08-30T00:44:36.717Z,100415.84
2022-08-30T00:50:42.344Z,100405.78
2022-08-30T00:56:47.385Z,100399.25
2022-08-30T01:02:49.589Z,100405.09
2022-08-30T01:08:55.521Z,100407.81
2022-08-30T01:14:58.858Z,100410.94
2022-08-30T01:21:19.148Z,100413.66
2022-08-30T01:27:23.118Z,100409.81
2022-08-30T01:33:25.873Z,100406.34
2022-08-30T01:39:28.226Z,100397.88
2022-08-30T01:45:30.444Z,100400.19
2022-08-30T01:51:33.403Z,100400.63
2022-08-30T01:57:35.673Z,100390.59
2022-08-30T02:03:37.892Z,100401.38
2022-08-30T02:09:39.969Z,100432.63
2022-08-30T02:15:43.541Z,100432.66
2022-08-30T02:21:46.677Z,100438.81
2022-08-30T02:27:49.401Z,100452.28
2022-08-30T02:33:53.489Z,100454.97
2022-08-30T02:39:55.490Z,100450.00
2022-08-30T02:45:57.640Z,100466.16
2022-08-30T02:51:59.681Z,100483.06
2022-08-30T02:58:03.307Z,100483.81
2022-08-30T03:04:06.049Z,100485.38
2022-08-30T03:10:08.965Z,100496.88
2022-08-30T03:16:12.368Z,100509.56
2022-08-30T03:22:18.005Z,100508.06
2022-08-30T03:28:20.025Z,100517.28
2022-08-30T03:34:24.597Z,100516.13
2022-08-30T03:40:26.765Z,100531.16
2022-08-30T03:46:29.150Z,100531.53
2022-08-30T03:52:31.172Z,100533.88
2022-08-30T03:58:37.216Z,100542.34
2022-08-30T05:02:38.383Z,100597.78
2022-08-30T06:45:28.870Z,100639.72
2022-08-30T07:00:06.918Z,100637.28
2022-08-30T07:13:45.418Z,100636.78
2022-08-30T07:19:51.260Z,100634.19
2022-08-30T07:26:01.274Z,100633.84
2022-08-30T07:38:33.545Z,100630.31
2022-08-30T07:44:37.930Z,100634.19
2022-08-30T07:50:45.770Z,100633.09
2022-08-30T07:56:50.832Z,100633.78
2022-08-30T08:02:57.294Z,100636.94
2022-08-30T08:09:03.514Z,100638.47
2022-08-30T08:15:20.123Z,100633.81
2022-08-30T08:21:24.371Z,100621.94
2022-08-30T08:27:30.256Z,100638.63
2022-08-30T08:33:35.901Z,100634.09
2022-08-30T08:39:41.913Z,100625.97
2022-08-30T08:46:05.349Z,100633.59
2022-08-30T08:52:38.672Z,100631.22
2022-08-30T08:58:45.361Z,100633.75
2022-08-30T09:05:02.918Z,100622.06
2022-08-30T09:11:11.812Z,100617.72
2022-08-30T09:17:16.978Z,100624.13
2022-08-30T09:23:34.123Z,100605.69
2022-08-30T09:29:51.849Z,100606.53
2022-08-30T09:36:15.945Z,100598.75
2022-08-30T09:42:33.060Z,100597.06
2022-08-30T09:48:44.963Z,100585.91
2022-08-30T09:55:14.258Z,100590.34
2022-08-30T10:01:37.431Z,100592.47
2022-08-30T10:08:07.028Z,100582.94
2022-08-30T10:14:34.091Z,100580.97
2022-08-30T10:21:00.115Z,100579.53
2022-08-30T10:27:21.078Z,100564.38
2022-08-30T10:33:38.361Z,100560.91
2022-08-30T10:39:56.817Z,100548.09
2022-08-30T10:46:11.728Z,100543.19
2022-08-30T10:52:42.866Z,100540.47
2022-08-30T10:58:48.956Z,100528.72
2022-08-30T11:05:07.119Z,100526.38
2022-08-30T11:11:42.665Z,100514.19
2022-08-30T11:17:57.118Z,100510.81
2022-08-30T11:24:15.060Z,100491.97
2022-08-30T11:30:44.379Z,100492.38
2022-08-30T11:36:55.808Z,100485.72
2022-08-30T11:43:45.926Z,100472.34
2022-08-30T11:50:13.561Z,100462.13
2022-08-30T11:56:28.025Z,100453.72
2022-08-30T12:02:48.024Z,100457.94
2022-08-30T12:09:02.881Z,100445.75
2022-08-30T12:15:29.709Z,100436.16
2022-08-30T12:21:44.955Z,100429.81
2022-08-30T12:27:52.733Z,100433.09
2022-08-30T12:34:03.214Z,100419.78
2022-08-30T12:40:17.289Z,100409.84
2022-08-30T12:46:23.677Z,100403.19
2022-08-30T12:52:39.560Z,100401.38
2022-08-30T12:58:53.405Z,100391.94
2022-08-30T13:05:00.528Z,100393.44
2022-08-30T13:11:29.526Z,100380.84
2022-08-30T13:17:31.802Z,100376.00
2022-08-30T13:23:36.716Z,100365.84
2022-08-30T13:29:44.140Z,100354.59
2022-08-30T13:35:48.164Z,100348.06
2022-08-30T13:41:54.223Z,100341.81
2022-08-30T13:47:56.854Z,100343.06
2022-08-30T13:54:00.947Z,100341.81
2022-08-30T14:00:06.436Z,100347.28
2022-08-30T14:06:32.363Z,100333.47
2022-08-30T14:12:53.724Z,100324.78
2022-08-30T14:18:58.729Z,100328.41
2022-08-30T14:25:05.378Z,100333.09
2022-08-30T14:31:11.263Z,100326.97
2022-08-30T14:37:17.219Z,100329.19
2022-08-30T14:43:23.852Z,100332.25
2022-08-30T14:49:29.083Z,100335.00
2022-08-30T14:55:34.565Z,100332.25
2022-08-30T15:01:41.648Z,100329.47
2022-08-30T15:07:47.534Z,100339.41
2022-08-30T15:13:52.906Z,100325.09
2022-08-30T15:19:57.932Z,100313.53
2022-08-30T15:26:00.106Z,100306.44
2022-08-30T15:32:11.789Z,100305.50
2022-08-30T15:38:16.536Z,100302.22
2022-08-30T15:44:20.140Z,100300.63
2022-08-30T15:50:25.283Z,100289.50
2022-08-30T15:56:33.177Z,100290.28
2022-08-30T16:02:40.245Z,100283.50
2022-08-30T16:08:48.996Z,100286.06
2022-08-30T16:14:52.204Z,100284.56
2022-08-30T16:21:17.317Z,100291.47
2022-08-30T16:27:25.594Z,100303.03
2022-08-30T16:33:34.568Z,100327.97
2022-08-30T16:39:41.144Z,100336.25
2022-08-30T16:45:51.269Z,100348.16
2022-08-30T16:51:57.641Z,100359.06
2022-08-30T16:58:04.482Z,100365.34
2022-08-30T17:04:10.577Z,100381.25
2022-08-30T17:10:14.323Z,100397.19
2022-08-30T17:16:22.415Z,100407.13
2022-08-30T17:22:25.280Z,100413.84
2022-08-30T17:28:30.353Z,100427.84
2022-08-30T17:34:33.340Z,100429.47
2022-08-30T17:40:37.477Z,100440.81
2022-08-30T17:46:43.751Z,100450.22
2022-08-30T17:52:46.414Z,100452.94
2022-08-30T17:58:56.592Z,100455.66
2022-08-30T18:05:03.357Z,100467.22
2022-08-30T18:11:06.784Z,100462.97
2022-08-30T18:17:10.558Z,100465.25
2022-08-30T18:23:15.223Z,100469.63
2022-08-30T18:29:26.319Z,100485.13
2022-08-30T18:35:44.119Z,100494.19
2022-08-30T18:41:55.684Z,100490.13
2022-08-30T18:47:59.391Z,100493.38
2022-08-30T18:54:05.386Z,100496.63
2022-08-30T19:00:14.500Z,100498.34
2022-08-30T19:06:18.065Z,100515.81
2022-08-30T19:12:20.125Z,100519.78
2022-08-30T19:18:24.078Z,100526.19
2022-08-30T19:24:26.847Z,100521.84
2022-08-30T19:30:30.534Z,100515.81
2022-08-30T19:36:32.814Z,100518.13
2022-08-30T19:42:45.845Z,100505.84
2022-08-30T19:48:48.467Z,100501.22
2022-08-30T19:54:52.055Z,100500.81
2022-08-30T20:01:01.216Z,100496.19
2022-08-30T20:07:26.183Z,100499.22
2022-08-30T20:13:34.357Z,100503.44
2022-08-30T20:19:42.648Z,100489.09
2022-08-30T20:25:46.769Z,100497.94
2022-08-30T20:31:49.848Z,100496.31
2022-08-30T20:37:55.060Z,100495.50
2022-08-30T20:43:58.726Z,100500.88
2022-08-30T20:50:06.981Z,100523.19
2022-08-30T20:56:18.873Z,100536.38
2022-08-30T21:02:23.543Z,100563.47
2022-08-30T21:08:29.252Z,100570.53
2022-08-30T21:14:31.542Z,100583.03
2022-08-30T21:20:39.787Z,100591.22
2022-08-30T21:26:44.437Z,100578.50
2022-08-30T21:32:52.205Z,100570.78
2022-08-30T21:39:00.424Z,100574.66
2022-08-30T21:45:03.406Z,100563.91
2022-08-30T21:51:12.868Z,100545.06
2022-08-30T21:57:17.743Z,100552.34
2022-08-30T22:03:19.960Z,100543.88
2022-08-30T22:09:24.918Z,100539.25
2022-08-30T22:15:33.213Z,100532.72
2022-08-30T22:21:38.212Z,100512.72
2022-08-30T22:27:42.755Z,100507.31
2022-08-30T22:33:57.597Z,100499.22
2022-08-30T22:40:04.215Z,100494.19
2022-08-30T22:46:12.346Z,100490.31
2022-08-30T22:52:18.908Z,100491.47
2022-08-30T22:58:29.808Z,100488.34
2022-08-30T23:04:37.436Z,100476.81
2022-08-30T23:10:41.440Z,100464.09
2022-08-30T23:16:49.810Z,100467.59
2022-08-30T23:23:03.933Z,100468.31
2022-08-30T23:29:26.306Z,100462.19
2022-08-30T23:35:51.072Z,100451.41
2022-08-30T23:42:14.745Z,100451.03
2022-08-30T23:48:36.619Z,100447.22
2022-08-30T23:54:58.397Z,100438.38
